sensor_id;sensor_type;location;lat;lon;timestamp;temperature;humidity
39695;DHT22;25367;-35.352;149.036;2024-02-26T06:59:27;26.50;56.80
39695;DHT22;25367;-35.352;149.036;2024-02-26T07:01:56;26.60;57.70
39695;DHT22;25367;-35.352;149.036;2024-02-26T07:04:25;26.90;58.00
39695;DHT22;25367;-35.352;149.036;2024-02-26T07:06:55;27.10;57.60
39695;DHT22;25367;-35.352;149.036;2024-02-26T07:09:24;27.30;57.50
39695;DHT22;25367;-35.352;149.036;2024-02-26T07:11:54;27.40;57.50
39695;DHT22;25367;-35.352;149.036;2024-02-26T07:14:25;27.60;57.30
39695;DHT22;25367;-35.352;149.036;2024-02-26T07:16:55;27.70;57.30
39695;DHT22;25367;-35.352;149.036;2024-02-26T07:19:24;27.80;57.00
39695;DHT22;25367;-35.352;149.036;2024-02-26T07:21:53;27.90;56.90
39695;DHT22;25367;-35.352;149.036;2024-02-26T07:24:23;28.00;56.70
39695;DHT22;25367;-35.352;149.036;2024-02-26T07:26:52;28.00;56.50
39695;DHT22;25367;-35.352;149.036;2024-02-26T07:29:24;28.10;56.40
39695;DHT22;25367;-35.352;149.036;2024-02-26T07:31:53;28.20;56.30
39695;DHT22;25367;-35.352;149.036;2024-02-26T07:34:23;28.30;56.20
39695;DHT22;25367;-35.352;149.036;2024-02-26T07:36:52;28.40;56.10
39695;DHT22;25367;-35.352;149.036;2024-02-26T07:39:21;28.40;56.10
39695;DHT22;25367;-35.352;149.036;2024-02-26T07:41:51;28.40;55.90
39695;DHT22;25367;-35.352;149.036;2024-02-26T07:44:25;28.50;55.80
39695;DHT22;25367;-35.352;149.036;2024-02-26T07:46:54;28.50;55.90
39695;DHT22;25367;-35.352;149.036;2024-02-26T07:49:24;28.60;56.00
39695;DHT22;25367;-35.352;149.036;2024-02-26T07:51:53;28.60;55.90
39695;DHT22;25367;-35.352;149.036;2024-02-26T07:54:23;28.70;55.80
39695;DHT22;25367;-35.352;149.036;2024-02-26T07:56:52;28.70;55.70
39695;DHT22;25367;-35.352;149.036;2024-02-26T07:59:22;28.70;55.40
39695;DHT22;25367;-35.352;149.036;2024-02-26T08:01:55;28.70;55.20
39695;DHT22;25367;-35.352;149.036;2024-02-26T08:04:24;28.80;55.20
39695;DHT22;25367;-35.352;149.036;2024-02-26T08:06:53;28.80;55.00
39695;DHT22;25367;-35.352;149.036;2024-02-26T08:09:23;28.80;55.00
39695;DHT22;25367;-35.352;149.036;2024-02-26T08:11:52;28.80;55.20
39695;DHT22;25367;-35.352;149.036;2024-02-26T08:14:22;28.80;54.90
39695;DHT22;25367;-35.352;149.036;2024-02-26T08:16:53;28.90;54.60
39695;DHT22;25367;-35.352;149.036;2024-02-26T08:19:22;28.90;54.50
39695;DHT22;25367;-35.352;149.036;2024-02-26T08:21:52;28.90;54.20
39695;DHT22;25367;-35.352;149.036;2024-02-26T08:24:21;28.90;54.00
39695;DHT22;25367;-35.352;149.036;2024-02-26T08:26:51;28.80;53.60
39695;DHT22;25367;-35.352;149.036;2024-02-26T08:29:21;28.80;53.40
39695;DHT22;25367;-35.352;149.036;2024-02-26T08:31:52;28.80;53.50
39695;DHT22;25367;-35.352;149.036;2024-02-26T08:34:22;28.80;53.10
39695;DHT22;25367;-35.352;149.036;2024-02-26T08:36:51;28.80;52.90
39695;DHT22;25367;-35.352;149.036;2024-02-26T08:39:21;28.80;52.60
39695;DHT22;25367;-35.352;149.036;2024-02-26T08:41:53;28.80;52.40
39695;DHT22;25367;-35.352;149.036;2024-02-26T08:44:22;28.80;52.20
39695;DHT22;25367;-35.352;149.036;2024-02-26T08:46:53;28.70;52.20
39695;DHT22;25367;-35.352;149.036;2024-02-26T08:49:23;28.70;51.90
39695;DHT22;25367;-35.352;149.036;2024-02-26T08:51:52;28.70;51.80
39695;DHT22;25367;-35.352;149.036;2024-02-26T08:54:21;28.70;51.70
39695;DHT22;25367;-35.352;149.036;2024-02-26T08:56:51;28.70;51.70
39695;DHT22;25367;-35.352;149.036;2024-02-26T08:59:20;28.60;51.80
39695;DHT22;25367;-35.352;149.036;2024-02-26T09:01:50;28.60;51.90
39695;DHT22;25367;-35.352;149.036;2024-02-26T09:04:21;28.60;51.90
39695;DHT22;25367;-35.352;149.036;2024-02-26T09:06:51;28.60;52.00
39695;DHT22;25367;-35.352;149.036;2024-02-26T09:09:20;28.60;51.90
39695;DHT22;25367;-35.352;149.036;2024-02-26T09:11:50;28.50;51.80
39695;DHT22;25367;-35.352;149.036;2024-02-26T09:14:19;28.60;51.80
39695;DHT22;25367;-35.352;149.036;2024-02-26T09:16:49;28.50;51.70
39695;DHT22;25367;-35.352;149.036;2024-02-26T09:19:21;28.60;51.70
39695;DHT22;25367;-35.352;149.036;2024-02-26T09:21:50;28.50;51.60
39695;DHT22;25367;-35.352;149.036;2024-02-26T09:24:20;28.50;51.60
39695;DHT22;25367;-35.352;149.036;2024-02-26T09:26:50;28.50;51.50
39695;DHT22;25367;-35.352;149.036;2024-02-26T09:29:19;28.50;51.50
39695;DHT22;25367;-35.352;149.036;2024-02-26T09:31:49;28.60;51.50
39695;DHT22;25367;-35.352;149.036;2024-02-26T09:34:20;28.60;51.40
39695;DHT22;25367;-35.352;149.036;2024-02-26T09:36:49;28.60;51.20
39695;DHT22;25367;-35.352;149.036;2024-02-26T09:39:18;28.60;51.20
39695;DHT22;25367;-35.352;149.036;2024-02-26T09:41:48;28.60;51.10
39695;DHT22;25367;-35.352;149.036;2024-02-26T09:44:20;28.50;51.20
39695;DHT22;25367;-35.352;149.036;2024-02-26T09:46:50;28.60;51.10
39695;DHT22;25367;-35.352;149.036;2024-02-26T09:49:24;28.60;51.10
39695;DHT22;25367;-35.352;149.036;2024-02-26T09:51:52;28.50;50.90
39695;DHT22;25367;-35.352;149.036;2024-02-26T09:54:24;28.50;51.50
39695;DHT22;25367;-35.352;149.036;2024-02-26T09:56:56;28.40;51.50
39695;DHT22;25367;-35.352;149.036;2024-02-26T09:59:28;28.50;50.80
39695;DHT22;25367;-35.352;149.036;2024-02-26T10:01:59;28.40;51.30
39695;DHT22;25367;-35.352;149.036;2024-02-26T10:04:32;28.40;50.70
39695;DHT22;25367;-35.352;149.036;2024-02-26T10:07:02;28.50;50.70
39695;DHT22;25367;-35.352;149.036;2024-02-26T10:09:32;28.40;50.60
39695;DHT22;25367;-35.352;149.036;2024-02-26T10:12:02;28.40;51.20
39695;DHT22;25367;-35.352;149.036;2024-02-26T10:14:31;28.40;50.70
39695;DHT22;25367;-35.352;149.036;2024-02-26T10:17:01;28.40;50.60
39695;DHT22;25367;-35.352;149.036;2024-02-26T10:19:32;28.40;50.60
39695;DHT22;25367;-35.352;149.036;2024-02-26T10:22:02;28.40;50.60
39695;DHT22;25367;-35.352;149.036;2024-02-26T10:24:32;28.40;50.60
39695;DHT22;25367;-35.352;149.036;2024-02-26T10:27:03;28.40;50.60
39695;DHT22;25367;-35.352;149.036;2024-02-26T10:29:33;28.30;50.50
39695;DHT22;25367;-35.352;149.036;2024-02-26T10:32:02;28.30;50.50
39695;DHT22;25367;-35.352;149.036;2024-02-26T10:34:36;28.40;50.60
39695;DHT22;25367;-35.352;149.036;2024-02-26T10:37:06;28.30;50.60
39695;DHT22;25367;-35.352;149.036;2024-02-26T10:39:37;28.40;50.60
39695;DHT22;25367;-35.352;149.036;2024-02-26T10:42:07;28.40;50.60
39695;DHT22;25367;-35.352;149.036;2024-02-26T10:44:42;28.30;50.50
39695;DHT22;25367;-35.352;149.036;2024-02-26T10:47:11;28.30;50.50
39695;DHT22;25367;-35.352;149.036;2024-02-26T10:49:46;28.30;50.40
39695;DHT22;25367;-35.352;149.036;2024-02-26T10:52:16;28.30;50.50
39695;DHT22;25367;-35.352;149.036;2024-02-26T10:54:48;28.30;50.40
39695;DHT22;25367;-35.352;149.036;2024-02-26T10:57:20;28.30;50.50
39695;DHT22;25367;-35.352;149.036;2024-02-26T10:59:50;28.30;50.40
39695;DHT22;25367;-35.352;149.036;2024-02-26T11:02:20;28.30;50.40
39695;DHT22;25367;-35.352;149.036;2024-02-26T11:04:53;28.30;50.20
39695;DHT22;25367;-35.352;149.036;2024-02-26T11:07:23;28.30;50.30
39695;DHT22;25367;-35.352;149.036;2024-02-26T11:09:54;28.20;50.20
39695;DHT22;25367;-35.352;149.036;2024-02-26T11:12:25;28.20;50.20
39695;DHT22;25367;-35.352;149.036;2024-02-26T11:14:56;28.20;50.20
39695;DHT22;25367;-35.352;149.036;2024-02-26T11:17:28;28.20;50.10
39695;DHT22;25367;-35.352;149.036;2024-02-26T11:20:01;28.20;50.10
39695;DHT22;25367;-35.352;149.036;2024-02-26T11:22:30;28.20;50.30
39695;DHT22;25367;-35.352;149.036;2024-02-26T11:25:00;28.20;50.10
39695;DHT22;25367;-35.352;149.036;2024-02-26T11:27:33;28.20;50.10
39695;DHT22;25367;-35.352;149.036;2024-02-26T11:30:04;28.10;50.00
39695;DHT22;25367;-35.352;149.036;2024-02-26T11:32:34;28.20;50.00
39695;DHT22;25367;-35.352;149.036;2024-02-26T11:35:08;28.10;49.90
39695;DHT22;25367;-35.352;149.036;2024-02-26T11:37:38;28.10;50.00
39695;DHT22;25367;-35.352;149.036;2024-02-26T11:40:11;28.10;50.00
39695;DHT22;25367;-35.352;149.036;2024-02-26T11:42:45;28.10;50.10
39695;DHT22;25367;-35.352;149.036;2024-02-26T11:45:48;28.10;50.10
39695;DHT22;25367;-35.352;149.036;2024-02-26T11:48:21;28.10;50.20
39695;DHT22;25367;-35.352;149.036;2024-02-26T11:50:53;28.10;50.00
39695;DHT22;25367;-35.352;149.036;2024-02-26T11:53:24;28.00;49.90
39695;DHT22;25367;-35.352;149.036;2024-02-26T11:56:20;28.00;49.60
39695;DHT22;25367;-35.352;149.036;2024-02-26T11:58:53;28.00;49.90
39695;DHT22;25367;-35.352;149.036;2024-02-26T12:01:42;28.00;49.50
39695;DHT22;25367;-35.352;149.036;2024-02-26T12:04:17;28.00;49.80
39695;DHT22;25367;-35.352;149.036;2024-02-26T12:06:53;28.00;49.60
39695;DHT22;25367;-35.352;149.036;2024-02-26T12:09:34;28.00;49.60
39695;DHT22;25367;-35.352;149.036;2024-02-26T12:12:04;28.00;49.70
39695;DHT22;25367;-35.352;149.036;2024-02-26T12:14:38;27.90;49.20
39695;DHT22;25367;-35.352;149.036;2024-02-26T12:17:15;27.90;49.30
39695;DHT22;25367;-35.352;149.036;2024-02-26T12:19:48;27.90;49.10
39695;DHT22;25367;-35.352;149.036;2024-02-26T12:22:21;27.90;49.10
39695;DHT22;25367;-35.352;149.036;2024-02-26T12:24:59;27.90;49.20
39695;DHT22;25367;-35.352;149.036;2024-02-26T12:27:29;27.90;49.30
39695;DHT22;25367;-35.352;149.036;2024-02-26T12:29:58;27.90;49.00
39695;DHT22;25367;-35.352;149.036;2024-02-26T12:32:28;27.90;48.80
39695;DHT22;25367;-35.352;149.036;2024-02-26T12:34:57;27.80;48.80
39695;DHT22;25367;-35.352;149.036;2024-02-26T12:37:29;27.80;48.70
39695;DHT22;25367;-35.352;149.036;2024-02-26T12:39:59;27.80;48.70
39695;DHT22;25367;-35.352;149.036;2024-02-26T12:42:28;27.80;48.60
39695;DHT22;25367;-35.352;149.036;2024-02-26T12:44:58;27.80;48.60
39695;DHT22;25367;-35.352;149.036;2024-02-26T12:47:28;27.80;48.60
39695;DHT22;25367;-35.352;149.036;2024-02-26T12:49:58;27.80;48.60
39695;DHT22;25367;-35.352;149.036;2024-02-26T12:52:31;27.70;48.50
39695;DHT22;25367;-35.352;149.036;2024-02-26T12:55:02;27.70;48.70
39695;DHT22;25367;-35.352;149.036;2024-02-26T12:57:33;27.70;48.50
39695;DHT22;25367;-35.352;149.036;2024-02-26T13:00:03;27.70;48.50
39695;DHT22;25367;-35.352;149.036;2024-02-26T13:02:34;27.70;48.40
39695;DHT22;25367;-35.352;149.036;2024-02-26T13:05:04;27.70;48.40
39695;DHT22;25367;-35.352;149.036;2024-02-26T13:07:41;27.70;48.40
39695;DHT22;25367;-35.352;149.036;2024-02-26T13:10:11;27.70;48.50
39695;DHT22;25367;-35.352;149.036;2024-02-26T13:12:44;27.60;48.30
39695;DHT22;25367;-35.352;149.036;2024-02-26T13:15:16;27.60;48.20
39695;DHT22;25367;-35.352;149.036;2024-02-26T22:19:51;23.20;52.90
39695;DHT22;25367;-35.352;149.036;2024-02-26T22:22:21;23.20;54.30
39695;DHT22;25367;-35.352;149.036;2024-02-26T22:24:50;23.40;54.30
39695;DHT22;25367;-35.352;149.036;2024-02-26T22:27:20;23.50;54.20
39695;DHT22;25367;-35.352;149.036;2024-02-26T22:29:49;23.70;54.00
39695;DHT22;25367;-35.352;149.036;2024-02-26T22:32:18;23.80;53.80
39695;DHT22;25367;-35.352;149.036;2024-02-26T22:34:49;23.90;53.60
39695;DHT22;25367;-35.352;149.036;2024-02-26T22:37:19;24.00;53.60
39695;DHT22;25367;-35.352;149.036;2024-02-26T22:39:48;24.10;53.40
39695;DHT22;25367;-35.352;149.036;2024-02-26T22:42:17;24.20;53.40
39695;DHT22;25367;-35.352;149.036;2024-02-26T22:44:47;24.20;53.40
39695;DHT22;25367;-35.352;149.036;2024-02-26T22:47:16;24.30;53.40
39695;DHT22;25367;-35.352;149.036;2024-02-26T22:49:46;24.40;53.40
39695;DHT22;25367;-35.352;149.036;2024-02-26T22:52:17;24.40;53.20
39695;DHT22;25367;-35.352;149.036;2024-02-26T22:54:46;24.50;53.20
39695;DHT22;25367;-35.352;149.036;2024-02-26T22:57:16;24.50;53.20
39695;DHT22;25367;-35.352;149.036;2024-02-26T22:59:45;24.50;53.10
39695;DHT22;25367;-35.352;149.036;2024-02-26T23:02:15;24.60;53.20
39695;DHT22;25367;-35.352;149.036;2024-02-26T23:04:44;24.60;53.10
39695;DHT22;25367;-35.352;149.036;2024-02-26T23:07:15;24.70;53.10
39695;DHT22;25367;-35.352;149.036;2024-02-26T23:09:45;24.70;53.00
39695;DHT22;25367;-35.352;149.036;2024-02-26T23:12:14;24.70;53.00
39695;DHT22;25367;-35.352;149.036;2024-02-26T23:14:43;24.70;52.90
39695;DHT22;25367;-35.352;149.036;2024-02-26T23:17:13;24.70;52.90
39695;DHT22;25367;-35.352;149.036;2024-02-26T23:19:42;24.80;52.90
39695;DHT22;25367;-35.352;149.036;2024-02-26T23:22:12;24.80;52.90
39695;DHT22;25367;-35.352;149.036;2024-02-26T23:24:43;24.90;52.90
39695;DHT22;25367;-35.352;149.036;2024-02-26T23:27:13;24.90;52.90
39695;DHT22;25367;-35.352;149.036;2024-02-26T23:29:42;24.90;52.90
39695;DHT22;25367;-35.352;149.036;2024-02-26T23:32:11;24.90;52.90
39695;DHT22;25367;-35.352;149.036;2024-02-26T23:34:41;25.00;52.90
39695;DHT22;25367;-35.352;149.036;2024-02-26T23:37:10;25.00;52.80
39695;DHT22;25367;-35.352;149.036;2024-02-26T23:39:41;25.00;52.80
39695;DHT22;25367;-35.352;149.036;2024-02-26T23:42:11;25.00;52.70
39695;DHT22;25367;-35.352;149.036;2024-02-26T23:44:41;25.00;52.70
39695;DHT22;25367;-35.352;149.036;2024-02-26T23:47:10;25.10;52.80
39695;DHT22;25367;-35.352;149.036;2024-02-26T23:49:40;25.10;52.70
39695;DHT22;25367;-35.352;149.036;2024-02-26T23:52:09;25.10;52.70
39695;DHT22;25367;-35.352;149.036;2024-02-26T23:54:39;25.10;52.60
39695;DHT22;25367;-35.352;149.036;2024-02-26T23:57:10;25.10;52.60
39695;DHT22;25367;-35.352;149.036;2024-02-26T23:59:39;25.10;52.70
